sensor_id;sensor_type;location;lat;lon;timestamp;pressure;altitude;pressure_sealevel;temperature;humidity
62111;BME280;48102;47.526;19.072;2023-04-20T03:42:01;100352.56;;;5.89;100.00
62111;BME280;48102;47.526;19.072;2023-04-20T03:45:06;100352.56;;;5.89;100.00
62111;BME280;48102;47.526;19.072;2023-04-20T03:48:08;100354.63;;;5.48;100.00
62111;BME280;48102;47.526;19.072;2023-04-20T03:51:11;100359.59;;;5.57;100.00
62111;BME280;48102;47.526;19.072;2023-04-20T03:54:14;100361.19;;;5.61;100.00
62111;BME280;48102;47.526;19.072;2023-04-20T03:57:17;100365.41;;;5.67;100.00
62111;BME280;48102;47.526;19.072;2023-04-20T04:00:21;100367.66;;;5.79;100.00
62111;BME280;48102;47.526;19.072;2023-04-20T04:03:30;100354.06;;;5.97;100.00
62111;BME280;48102;47.526;19.072;2023-04-20T04:06:33;100360.47;;;6.15;100.00
62111;BME280;48102;47.526;19.072;2023-04-20T04:09:36;100361.81;;;6.28;100.00
62111;BME280;48102;47.526;19.072;2023-04-20T04:12:39;100363.03;;;6.45;100.00
62111;BME280;48102;47.526;19.072;2023-04-20T04:15:42;100360.78;;;6.61;100.00
62111;BME280;48102;47.526;19.072;2023-04-20T04:18:45;100363.88;;;6.72;100.00
62111;BME280;48102;47.526;19.072;2023-04-20T04:21:48;100368.59;;;6.87;100.00
62111;BME280;48102;47.526;19.072;2023-04-20T04:24:52;100369.13;;;6.97;100.00
62111;BME280;48102;47.526;19.072;2023-04-20T04:27:56;100371.50;;;7.04;100.00
62111;BME280;48102;47.526;19.072;2023-04-20T04:31:00;100372.09;;;7.13;100.00
62111;BME280;48102;47.526;19.072;2023-04-20T04:34:03;100372.72;;;7.19;100.00
62111;BME280;48102;47.526;19.072;2023-04-20T04:37:07;100372.34;;;7.30;100.00
62111;BME280;48102;47.526;19.072;2023-04-20T04:40:12;100369.50;;;7.36;100.00
62111;BME280;48102;47.526;19.072;2023-04-20T04:43:17;100366.53;;;7.45;100.00
62111;BME280;48102;47.526;19.072;2023-04-20T04:46:22;100364.50;;;7.53;100.00
62111;BME280;48102;47.526;19.072;2023-04-20T04:49:27;100363.28;;;7.62;100.00
62111;BME280;48102;47.526;19.072;2023-04-20T04:52:34;100367.28;;;7.72;100.00
62111;BME280;48102;47.526;19.072;2023-04-20T04:55:36;100363.34;;;7.84;100.00
62111;BME280;48102;47.526;19.072;2023-04-20T04:58:40;100377.59;;;8.00;100.00
62111;BME280;48102;47.526;19.072;2023-04-20T05:01:42;100377.88;;;8.15;100.00
62111;BME280;48102;47.526;19.072;2023-04-20T05:04:45;100377.13;;;8.35;100.00
62111;BME280;48102;47.526;19.072;2023-04-20T05:07:48;100374.03;;;8.47;100.00
62111;BME280;48102;47.526;19.072;2023-04-20T05:10:51;100376.00;;;8.62;100.00
62111;BME280;48102;47.526;19.072;2023-04-20T05:13:54;100374.66;;;8.74;100.00
62111;BME280;48102;47.526;19.072;2023-04-20T05:16:58;100381.84;;;8.91;100.00
62111;BME280;48102;47.526;19.072;2023-04-20T05:20:01;100385.38;;;9.10;100.00
62111;BME280;48102;47.526;19.072;2023-04-20T05:23:05;100387.59;;;9.19;100.00
62111;BME280;48102;47.526;19.072;2023-04-20T05:26:08;100386.88;;;9.36;100.00
62111;BME280;48102;47.526;19.072;2023-04-20T05:29:11;100387.91;;;9.52;100.00
62111;BME280;48102;47.526;19.072;2023-04-20T05:32:14;100394.28;;;9.67;100.00
62111;BME280;48102;47.526;19.072;2023-04-20T05:35:18;100385.97;;;9.76;100.00
62111;BME280;48102;47.526;19.072;2023-04-20T05:38:20;100389.53;;;9.94;100.00
62111;BME280;48102;47.526;19.072;2023-04-20T05:41:23;100403.81;;;10.08;100.00
62111;BME280;48102;47.526;19.072;2023-04-20T05:44:29;100400.84;;;10.15;100.00
62111;BME280;48102;47.526;19.072;2023-04-20T05:47:32;100403.81;;;10.26;100.00
62111;BME280;48102;47.526;19.072;2023-04-20T05:50:34;100401.22;;;10.44;100.00
62111;BME280;48102;47.526;19.072;2023-04-20T05:53:37;100409.59;;;10.71;100.00
62111;BME280;48102;47.526;19.072;2023-04-20T05:56:40;100407.13;;;10.85;100.00
62111;BME280;48102;47.526;19.072;2023-04-20T05:59:43;100413.50;;;10.98;100.00
62111;BME280;48102;47.526;19.072;2023-04-20T06:02:46;100412.03;;;11.10;100.00
62111;BME280;48102;47.526;19.072;2023-04-20T06:05:50;100414.19;;;11.19;100.00
62111;BME280;48102;47.526;19.072;2023-04-20T06:08:52;100414.66;;;11.27;100.00
62111;BME280;48102;47.526;19.072;2023-04-20T06:11:56;100413.22;;;11.38;100.00
62111;BME280;48102;47.526;19.072;2023-04-20T06:15:00;100412.66;;;11.48;100.00
62111;BME280;48102;47.526;19.072;2023-04-20T06:18:03;100413.16;;;11.72;100.00
62111;BME280;48102;47.526;19.072;2023-04-20T06:21:08;100418.00;;;11.97;100.00
62111;BME280;48102;47.526;19.072;2023-04-20T06:24:11;100427.41;;;12.19;100.00
62111;BME280;48102;47.526;19.072;2023-04-20T06:27:13;100422.78;;;12.38;100.00
62111;BME280;48102;47.526;19.072;2023-04-20T06:30:17;100415.28;;;12.46;100.00
62111;BME280;48102;47.526;19.072;2023-04-20T06:33:20;100420.47;;;12.64;100.00
62111;BME280;48102;47.526;19.072;2023-04-20T06:36:23;100423.50;;;12.88;100.00
62111;BME280;48102;47.526;19.072;2023-04-20T06:39:26;100422.19;;;12.95;100.00
62111;BME280;48102;47.526;19.072;2023-04-20T06:42:29;100421.34;;;13.24;100.00
62111;BME280;48102;47.526;19.072;2023-04-20T06:45:32;100423.78;;;13.43;100.00
62111;BME280;48102;47.526;19.072;2023-04-20T06:48:36;100425.19;;;13.49;94.27
62111;BME280;48102;47.526;19.072;2023-04-20T06:51:39;100420.34;;;13.55;98.50
62111;BME280;48102;47.526;19.072;2023-04-20T06:54:42;100424.00;;;13.69;97.60
62111;BME280;48102;47.526;19.072;2023-04-20T06:57:44;100420.09;;;13.89;96.06
62111;BME280;48102;47.526;19.072;2023-04-20T07:00:47;100417.91;;;13.95;89.78
62111;BME280;48102;47.526;19.072;2023-04-20T07:03:50;100424.16;;;14.09;92.47
62111;BME280;48102;47.526;19.072;2023-04-20T07:06:54;100424.28;;;14.34;95.59
62111;BME280;48102;47.526;19.072;2023-04-20T07:09:57;100423.16;;;14.38;90.05
62111;BME280;48102;47.526;19.072;2023-04-20T07:13:00;100424.34;;;14.61;87.08
62111;BME280;48102;47.526;19.072;2023-04-20T07:16:02;100427.03;;;14.74;86.00
62111;BME280;48102;47.526;19.072;2023-04-20T07:19:06;100421.13;;;14.83;83.22
62111;BME280;48102;47.526;19.072;2023-04-20T07:22:09;100427.47;;;14.80;80.80
62111;BME280;48102;47.526;19.072;2023-04-20T07:25:12;100426.66;;;14.93;75.94
62111;BME280;48102;47.526;19.072;2023-04-20T07:28:14;100434.03;;;14.75;76.73
62111;BME280;48102;47.526;19.072;2023-04-20T07:31:17;100427.47;;;15.08;80.69
62111;BME280;48102;47.526;19.072;2023-04-20T07:34:20;100420.25;;;15.22;74.97
62111;BME280;48102;47.526;19.072;2023-04-20T07:37:23;100429.81;;;15.25;71.77
62111;BME280;48102;47.526;19.072;2023-04-20T07:40:28;100425.50;;;15.75;75.43
62111;BME280;48102;47.526;19.072;2023-04-20T07:43:31;100432.94;;;15.83;69.67
62111;BME280;48102;47.526;19.072;2023-04-20T07:46:35;100428.88;;;15.51;66.83
62111;BME280;48102;47.526;19.072;2023-04-20T07:49:38;100421.88;;;15.63;70.84
62111;BME280;48102;47.526;19.072;2023-04-20T07:52:42;100426.34;;;15.88;66.16
62111;BME280;48102;47.526;19.072;2023-04-20T07:55:48;100427.81;;;15.92;65.78
62111;BME280;48102;47.526;19.072;2023-04-20T07:58:52;100432.56;;;16.25;66.22
62111;BME280;48102;47.526;19.072;2023-04-20T08:02:00;100434.50;;;16.47;63.40
62111;BME280;48102;47.526;19.072;2023-04-20T08:05:04;100425.00;;;16.56;58.79
62111;BME280;48102;47.526;19.072;2023-04-20T08:08:07;100420.22;;;16.48;57.40
62111;BME280;48102;47.526;19.072;2023-04-20T08:11:10;100424.50;;;16.51;60.36
62111;BME280;48102;47.526;19.072;2023-04-20T08:14:14;100432.63;;;16.73;60.29
62111;BME280;48102;47.526;19.072;2023-04-20T08:17:18;100431.72;;;16.86;58.28
62111;BME280;48102;47.526;19.072;2023-04-20T08:20:20;100428.91;;;16.76;57.47
62111;BME280;48102;47.526;19.072;2023-04-20T08:23:23;100431.09;;;16.82;56.95
62111;BME280;48102;47.526;19.072;2023-04-20T08:26:30;100429.34;;;16.94;55.38
62111;BME280;48102;47.526;19.072;2023-04-20T08:29:33;100424.56;;;16.86;55.08
62111;BME280;48102;47.526;19.072;2023-04-20T08:32:36;100424.00;;;16.94;54.23
62111;BME280;48102;47.526;19.072;2023-04-20T08:35:39;100422.84;;;17.09;53.01
62111;BME280;48102;47.526;19.072;2023-04-20T08:38:42;100420.13;;;17.33;54.06
62111;BME280;48102;47.526;19.072;2023-04-20T08:41:45;100421.09;;;17.43;54.77
62111;BME280;48102;47.526;19.072;2023-04-20T08:44:53;100419.94;;;17.59;56.50
62111;BME280;48102;47.526;19.072;2023-04-20T08:47:59;100420.34;;;17.76;55.93
62111;BME280;48102;47.526;19.072;2023-04-20T08:51:07;100411.69;;;17.50;52.82
62111;BME280;48102;47.526;19.072;2023-04-20T08:54:11;100422.59;;;17.70;54.73
62111;BME280;48102;47.526;19.072;2023-04-20T08:57:13;100414.78;;;17.79;51.23
62111;BME280;48102;47.526;19.072;2023-04-20T09:00:17;100430.16;;;17.76;52.12
62111;BME280;48102;47.526;19.072;2023-04-20T09:03:32;100418.78;;;17.85;52.59
62111;BME280;48102;47.526;19.072;2023-04-20T09:06:42;100410.66;;;18.09;50.53
62111;BME280;48102;47.526;19.072;2023-04-20T09:09:58;100422.41;;;18.18;50.82
62111;BME280;48102;47.526;19.072;2023-04-20T09:13:01;100415.34;;;18.17;51.26
62111;BME280;48102;47.526;19.072;2023-04-20T09:16:11;100417.31;;;18.03;51.88
62111;BME280;48102;47.526;19.072;2023-04-20T09:19:20;100415.47;;;18.26;50.77
62111;BME280;48102;47.526;19.072;2023-04-20T09:22:34;100408.50;;;18.46;49.18
62111;BME280;48102;47.526;19.072;2023-04-20T09:25:38;100410.66;;;18.09;50.01
62111;BME280;48102;47.526;19.072;2023-04-20T09:28:42;100411.94;;;18.26;51.01
62111;BME280;48102;47.526;19.072;2023-04-20T09:31:46;100410.69;;;18.52;49.32
62111;BME280;48102;47.526;19.072;2023-04-20T09:34:49;100409.81;;;18.52;50.81
62111;BME280;48102;47.526;19.072;2023-04-20T09:37:52;100407.06;;;18.42;48.98
62111;BME280;48102;47.526;19.072;2023-04-20T09:40:56;100409.72;;;18.53;50.43
62111;BME280;48102;47.526;19.072;2023-04-20T09:44:04;100407.53;;;18.47;49.59
62111;BME280;48102;47.526;19.072;2023-04-20T09:47:08;100401.06;;;18.61;48.68
62111;BME280;48102;47.526;19.072;2023-04-20T09:50:21;100408.81;;;18.75;48.56
62111;BME280;48102;47.526;19.072;2023-04-20T09:53:31;100405.41;;;18.73;46.67
62111;BME280;48102;47.526;19.072;2023-04-20T09:56:35;100404.53;;;18.29;49.62
62111;BME280;48102;47.526;19.072;2023-04-20T09:59:41;100402.19;;;18.47;48.44
62111;BME280;48102;47.526;19.072;2023-04-20T10:02:46;100393.41;;;18.56;48.00
62111;BME280;48102;47.526;19.072;2023-04-20T10:05:50;100392.69;;;18.98;51.64
62111;BME280;48102;47.526;19.072;2023-04-20T10:08:59;100396.94;;;19.21;46.37
62111;BME280;48102;47.526;19.072;2023-04-20T10:12:07;100389.37;;;19.47;48.77
62111;BME280;48102;47.526;19.072;2023-04-20T10:15:10;100383.94;;;19.17;45.72
62111;BME280;48102;47.526;19.072;2023-04-20T10:21:19;100376.25;;;19.44;46.45
62111;BME280;48102;47.526;19.072;2023-04-20T10:24:30;100382.44;;;19.66;44.80
62111;BME280;48102;47.526;19.072;2023-04-20T10:27:32;100384.12;;;19.46;44.47
62111;BME280;48102;47.526;19.072;2023-04-20T10:30:36;100383.34;;;19.34;47.72
62111;BME280;48102;47.526;19.072;2023-04-20T10:33:54;100383.37;;;19.86;45.11
62111;BME280;48102;47.526;19.072;2023-04-20T10:37:12;100381.75;;;20.04;44.16
62111;BME280;48102;47.526;19.072;2023-04-20T10:40:16;100379.50;;;19.99;43.21
62111;BME280;48102;47.526;19.072;2023-04-20T10:43:20;100370.13;;;19.84;46.34
62111;BME280;48102;47.526;19.072;2023-04-20T10:46:23;100376.31;;;19.33;43.87
62111;BME280;48102;47.526;19.072;2023-04-20T10:49:27;100371.41;;;19.59;45.03
62111;BME280;48102;47.526;19.072;2023-04-20T10:52:34;100366.25;;;19.67;44.54
62111;BME280;48102;47.526;19.072;2023-04-20T10:55:40;100365.13;;;19.39;44.73
62111;BME280;48102;47.526;19.072;2023-04-20T10:58:42;100359.84;;;19.79;42.91
62111;BME280;48102;47.526;19.072;2023-04-20T11:01:46;100361.47;;;20.01;43.86
62111;BME280;48102;47.526;19.072;2023-04-20T11:04:49;100346.00;;;20.15;42.27
62111;BME280;48102;47.526;19.072;2023-04-20T11:07:57;100356.50;;;20.47;42.80
62111;BME280;48102;47.526;19.072;2023-04-20T11:11:01;100344.12;;;20.56;41.54
62111;BME280;48102;47.526;19.072;2023-04-20T11:14:08;100344.69;;;20.78;45.80
62111;BME280;48102;47.526;19.072;2023-04-20T11:17:10;100341.72;;;20.72;41.47
62111;BME280;48102;47.526;19.072;2023-04-20T11:20:14;100335.75;;;21.17;40.90
62111;BME280;48102;47.526;19.072;2023-04-20T11:23:20;100336.16;;;21.32;40.78
62111;BME280;48102;47.526;19.072;2023-04-20T11:26:33;100336.22;;;21.87;41.44
62111;BME280;48102;47.526;19.072;2023-04-20T11:29:38;100333.75;;;21.93;40.02
62111;BME280;48102;47.526;19.072;2023-04-20T11:32:41;100338.16;;;21.94;41.97
62111;BME280;48102;47.526;19.072;2023-04-20T11:35:44;100323.94;;;21.57;38.07
62111;BME280;48102;47.526;19.072;2023-04-20T11:38:48;100333.75;;;21.38;40.14
62111;BME280;48102;47.526;19.072;2023-04-20T11:41:51;100334.31;;;21.32;39.39
62111;BME280;48102;47.526;19.072;2023-04-20T11:44:55;100332.53;;;21.60;38.50
62111;BME280;48102;47.526;19.072;2023-04-20T11:47:58;100329.59;;;21.81;40.25
62111;BME280;48102;47.526;19.072;2023-04-20T11:51:01;100323.69;;;21.40;36.30
62111;BME280;48102;47.526;19.072;2023-04-20T11:54:05;100329.00;;;20.93;39.25
62111;BME280;48102;47.526;19.072;2023-04-20T11:57:09;100332.69;;;20.63;39.08
62111;BME280;48102;47.526;19.072;2023-04-20T12:00:12;100331.09;;;20.41;40.68
62111;BME280;48102;47.526;19.072;2023-04-20T12:03:14;100325.41;;;21.32;38.49
62111;BME280;48102;47.526;19.072;2023-04-20T12:06:18;100327.56;;;22.38;37.46
62111;BME280;48102;47.526;19.072;2023-04-20T12:09:21;100322.22;;;23.52;35.98
62111;BME280;48102;47.526;19.072;2023-04-20T12:12:24;100324.16;;;24.02;35.62
62111;BME280;48102;47.526;19.072;2023-04-20T12:15:28;100320.91;;;24.49;33.36
62111;BME280;48102;47.526;19.072;2023-04-20T12:18:31;100307.75;;;25.19;32.34
62111;BME280;48102;47.526;19.072;2023-04-20T12:21:34;100313.72;;;26.56;32.42
62111;BME280;48102;47.526;19.072;2023-04-20T12:24:37;100315.13;;;26.89;29.11
62111;BME280;48102;47.526;19.072;2023-04-20T12:27:39;100305.88;;;28.53;27.40
62111;BME280;48102;47.526;19.072;2023-04-20T12:30:42;100306.62;;;29.94;26.52
62111;BME280;48102;47.526;19.072;2023-04-20T12:33:45;100303.53;;;32.21;23.32
62111;BME280;48102;47.526;19.072;2023-04-20T12:36:48;100292.09;;;33.92;21.67
62111;BME280;48102;47.526;19.072;2023-04-20T12:39:50;100291.63;;;34.98;20.13
62111;BME280;48102;47.526;19.072;2023-04-20T12:42:53;100288.97;;;36.81;18.20
62111;BME280;48102;47.526;19.072;2023-04-20T12:45:56;100287.81;;;37.93;18.77
62111;BME280;48102;47.526;19.072;2023-04-20T12:48:59;100289.78;;;39.84;16.04
62111;BME280;48102;47.526;19.072;2023-04-20T12:52:02;100283.81;;;41.20;15.45
62111;BME280;48102;47.526;19.072;2023-04-20T12:55:08;100279.03;;;42.40;15.15
62111;BME280;48102;47.526;19.072;2023-04-20T12:58:10;100265.66;;;43.34;13.99
62111;BME280;48102;47.526;19.072;2023-04-20T13:01:14;100269.84;;;43.55;14.01
62111;BME280;48102;47.526;19.072;2023-04-20T13:04:17;100259.31;;;41.57;14.00
62111;BME280;48102;47.526;19.072;2023-04-20T13:07:20;100261.34;;;42.70;14.08
62111;BME280;48102;47.526;19.072;2023-04-20T13:10:23;100257.75;;;43.70;13.85
62111;BME280;48102;47.526;19.072;2023-04-20T13:13:28;100254.72;;;44.42;13.03
62111;BME280;48102;47.526;19.072;2023-04-20T13:16:31;100246.38;;;44.75;14.43
62111;BME280;48102;47.526;19.072;2023-04-20T13:19:34;100251.66;;;45.59;11.72
62111;BME280;48102;47.526;19.072;2023-04-20T13:22:37;100245.94;;;45.92;12.27
62111;BME280;48102;47.526;19.072;2023-04-20T13:25:58;100241.69;;;47.33;11.62
62111;BME280;48102;47.526;19.072;2023-04-20T13:29:03;100248.78;;;44.30;12.68
62111;BME280;48102;47.526;19.072;2023-04-20T13:32:06;100218.56;;;39.08;16.53
62111;BME280;48102;47.526;19.072;2023-04-20T13:35:08;100221.59;;;35.82;17.91
62111;BME280;48102;47.526;19.072;2023-04-20T13:38:13;100220.03;;;36.82;16.38
62111;BME280;48102;47.526;19.072;2023-04-20T13:41:16;100220.88;;;35.58;19.24
62111;BME280;48102;47.526;19.072;2023-04-20T13:44:19;100212.16;;;34.51;19.50
62111;BME280;48102;47.526;19.072;2023-04-20T13:47:22;100208.16;;;33.93;19.96
62111;BME280;48102;47.526;19.072;2023-04-20T13:50:26;100199.47;;;32.24;20.28
62111;BME280;48102;47.526;19.072;2023-04-20T13:53:28;100194.22;;;30.02;22.82
62111;BME280;48102;47.526;19.072;2023-04-20T13:56:32;100206.25;;;28.90;25.26
62111;BME280;48102;47.526;19.072;2023-04-20T13:59:35;100195.25;;;29.39;24.35
62111;BME280;48102;47.526;19.072;2023-04-20T14:02:38;100202.31;;;33.59;20.13
62111;BME280;48102;47.526;19.072;2023-04-20T14:05:42;100210.31;;;37.79;16.65
62111;BME280;48102;47.526;19.072;2023-04-20T14:08:45;100208.41;;;40.73;16.22
62111;BME280;48102;47.526;19.072;2023-04-20T14:11:48;100207.63;;;43.62;12.27
62111;BME280;48102;47.526;19.072;2023-04-20T14:14:57;100193.63;;;42.81;12.46
62111;BME280;48102;47.526;19.072;2023-04-20T14:18:01;100201.00;;;43.76;13.58
62111;BME280;48102;47.526;19.072;2023-04-20T14:21:04;100195.66;;;42.70;14.07
62111;BME280;48102;47.526;19.072;2023-04-20T14:24:08;100181.34;;;39.83;13.98
62111;BME280;48102;47.526;19.072;2023-04-20T14:27:11;100185.09;;;36.78;16.53
62111;BME280;48102;47.526;19.072;2023-04-20T14:30:14;100173.69;;;34.92;17.76
62111;BME280;48102;47.526;19.072;2023-04-20T14:33:17;100170.72;;;38.07;16.32
62111;BME280;48102;47.526;19.072;2023-04-20T14:36:20;100182.75;;;40.27;14.02
62111;BME280;48102;47.526;19.072;2023-04-20T14:39:23;100183.31;;;41.94;13.01
62111;BME280;48102;47.526;19.072;2023-04-20T14:42:26;100174.38;;;40.98;13.97
62111;BME280;48102;47.526;19.072;2023-04-20T14:45:29;100175.31;;;41.88;12.90
62111;BME280;48102;47.526;19.072;2023-04-20T14:48:32;100174.25;;;43.43;13.24
62111;BME280;48102;47.526;19.072;2023-04-20T14:51:35;100181.38;;;43.92;12.10
62111;BME280;48102;47.526;19.072;2023-04-20T14:54:40;100172.91;;;43.21;12.36
62111;BME280;48102;47.526;19.072;2023-04-20T14:57:42;100176.47;;;43.83;12.90
62111;BME280;48102;47.526;19.072;2023-04-20T15:00:46;100176.88;;;44.89;12.54
62111;BME280;48102;47.526;19.072;2023-04-20T15:03:50;100175.06;;;46.29;11.45
62111;BME280;48102;47.526;19.072;2023-04-20T15:06:53;100173.63;;;46.32;11.61
62111;BME280;48102;47.526;19.072;2023-04-20T15:09:56;100169.56;;;47.26;11.29
62111;BME280;48102;47.526;19.072;2023-04-20T15:12:59;100171.91;;;47.59;11.19
62111;BME280;48102;47.526;19.072;2023-04-20T15:16:02;100165.50;;;46.84;11.34
62111;BME280;48102;47.526;19.072;2023-04-20T15:19:05;100177.03;;;47.83;10.35
62111;BME280;48102;47.526;19.072;2023-04-20T15:22:08;100168.28;;;47.49;10.92
62111;BME280;48102;47.526;19.072;2023-04-20T15:25:11;100163.47;;;48.37;10.48
62111;BME280;48102;47.526;19.072;2023-04-20T15:28:13;100166.97;;;47.30;10.44
